Pagina principale
METAR-TAF:

METAR-TAF

Aeroporti :

Aeroporto di Venezia-Tessera

Venezia, Italia

latitudine: 45-30N, longitudine: 012-20E, altezza: 2 m

Osservazione

Il bollettino è stato emesso 32 minuti fa, alle 02:50 UTC
Vento 9 kt da nord
Temperature 2°C
Umidità 75%
Pressione 1015 hPa
Visibilità 10 km o più
Nubi sparse ad un'altezza di 4400 ft

METAR: LIPZ 140250Z 01009KT 9999 SCT044 02/M02 Q1015 NOSIG

Ora: 04:22 (03:22 UTC)

Previsione

Il bollettino è stato emesso 4 ore e 22 minuti fa, alle 23:00 UTC
Previsione valida dal 14 alle 00 UTC al 15 alle 06 UTC
Vento 13 kt da nord-est
Visibilità 10 km o più
Poco nuvoloso ad un'altezza di 3000 ft

TAF: LIPZ 132300Z 1400/1506 04013KT 9999 FEW030

Osservazioni e previsioni meteorologiche di più di 4000 aeroporti (messaggi METAR e TAF).

Le stazioni disponibili sono rappresentate dai dischi gialli e rossi sulla carta.

Puntare il mouse per vedere il nome della stazione.

Clicca sopra per visualizzare le osservazioni e previsioni meteorologiche.

Per cambiare la mappa : fare clic sui pulsanti verdi con una croce nera per ingrandire, il pulsante verde con un trattino per diminuire, o sulla freccia verde per le mappe adiacenti.


METAR-TAF: